Time;durP1;ratioP1;P1;durP2;ratioP2;P2;SDS_P1;SDS_P2;PMS_P1;PMS_P2;Temp;Humidity;BMP_temperature;BMP_pressure;BME280_temperature;BME280_humidity;BME280_pressure;Samples;Min_cycle;Max_cycle;Signal;HPM_P1;HPM_P2
2022/04/16 00:00:59;;;;;;;15.80;11.52;;;7.90;82.40;;;;;;5075299;28;20047;-46
2022/04/16 00:03:25;;;;;;;19.63;12.18;;;7.90;82.60;;;;;;5094094;28;20690;-45
2022/04/16 00:05:54;;;;;;;16.88;13.40;;;7.90;82.80;;;;;;5092062;28;20016;-43
2022/04/16 00:08:21;;;;;;;17.83;14.07;;;7.90;83.10;;;;;;5059049;28;20035;-44
2022/04/16 00:10:49;;;;;;;18.05;12.38;;;7.90;83.30;;;;;;5092548;28;20039;-44
2022/04/16 00:13:16;;;;;;;19.00;13.55;;;7.90;83.40;;;;;;5093179;28;20066;-43
2022/04/16 00:15:45;;;;;;;16.83;13.00;;;7.90;83.70;;;;;;5093312;28;20032;-44
2022/04/16 00:18:12;;;;;;;18.80;12.88;;;8.00;83.70;;;;;;5091255;28;20101;-44
2022/04/16 00:20:40;;;;;;;15.70;11.98;;;8.00;83.70;;;;;;5076029;28;20028;-45
2022/04/16 00:23:07;;;;;;;16.80;12.70;;;8.00;83.80;;;;;;5073982;28;20036;-45
2022/04/16 00:25:36;;;;;;;21.98;13.35;;;8.00;83.90;;;;;;5092682;28;20077;-45
2022/04/16 00:28:04;;;;;;;14.95;10.85;;;8.00;83.60;;;;;;5073249;28;20024;-44
2022/04/16 00:30:37;;;;;;;15.65;9.90;;;8.00;82.70;;;;;;5092887;28;20509;-44
2022/04/16 00:33:19;;;;;;;13.75;9.40;;;7.90;82.30;;;;;;5074754;28;20036;-45
2022/04/16 00:35:44;;;;;;;16.23;9.70;;;7.90;82.20;;;;;;5093666;28;20028;-43
2022/04/16 00:38:11;;;;;;;15.20;10.52;;;7.90;82.30;;;;;;5093068;28;20527;-44
2022/04/16 00:40:38;;;;;;;16.92;11.05;;;7.90;82.20;;;;;;5090709;28;20452;-49
2022/04/16 00:43:06;;;;;;;16.50;10.77;;;7.90;82.20;;;;;;5092937;28;20039;-44
2022/04/16 00:45:33;;;;;;;15.38;10.60;;;7.90;82.60;;;;;;5091654;28;20471;-43
2022/04/16 00:48:00;;;;;;;12.77;10.35;;;7.90;82.70;;;;;;5076271;28;20031;-46
2022/04/16 00:50:37;;;;;;;13.88;10.50;;;7.90;82.80;;;;;;5093760;28;20064;-45
2022/04/16 00:53:05;;;;;;;17.67;10.88;;;7.90;83.00;;;;;;5092043;28;20106;-46
2022/04/16 00:55:31;;;;;;;15.63;10.82;;;7.90;83.30;;;;;;5074430;28;20040;-44
2022/04/16 00:57:58;;;;;;;17.73;10.50;;;7.90;83.20;;;;;;5056055;28;20051;-46
2022/04/16 01:00:24;;;;;;;13.70;11.25;;;7.80;83.40;;;;;;5091977;28;20148;-44
2022/04/16 01:02:51;;;;;;;17.15;11.23;;;7.80;83.70;;;;;;5091669;28;20094;-43
2022/04/16 01:05:19;;;;;;;18.17;12.05;;;7.70;83.50;;;;;;5074129;28;20444;-45
2022/04/16 01:08:02;;;;;;;15.90;11.50;;;7.80;83.90;;;;;;5091804;28;20121;-43
2022/04/16 01:10:29;;;;;;;17.15;12.57;;;7.70;83.90;;;;;;5091679;28;20024;-45
2022/04/16 01:13:07;;;;;;;18.15;12.55;;;7.70;84.00;;;;;;5092109;28;20035;-44
2022/04/16 01:15:33;;;;;;;17.35;12.20;;;7.70;83.90;;;;;;5091885;28;20036;-44
2022/04/16 01:18:05;;;;;;;21.30;12.75;;;7.70;84.10;;;;;;5091015;28;20086;-46
2022/04/16 01:20:33;;;;;;;16.52;12.57;;;7.70;84.00;;;;;;5092802;28;20050;-43
2022/04/16 01:22:59;;;;;;;18.88;14.48;;;7.70;84.20;;;;;;5090515;28;20668;-42
2022/04/16 01:25:32;;;;;;;21.73;14.40;;;7.70;84.30;;;;;;5063758;28;20036;-47
2022/04/16 01:28:02;;;;;;;19.77;13.40;;;7.60;84.20;;;;;;5088763;28;20329;-46
2022/04/16 01:30:34;;;;;;;19.02;13.63;;;7.60;84.10;;;;;;5091453;28;20121;-44
2022/04/16 01:33:03;;;;;;;17.45;13.75;;;7.60;84.00;;;;;;5090310;28;20042;-47
2022/04/16 01:35:30;;;;;;;20.33;13.25;;;7.60;84.10;;;;;;5091713;28;20060;-47
2022/04/16 01:37:58;;;;;;;23.25;14.93;;;7.60;84.00;;;;;;5090280;28;20145;-44
2022/04/16 01:40:25;;;;;;;18.80;13.25;;;7.60;83.90;;;;;;5091489;28;20032;-45
2022/04/16 01:42:56;;;;;;;21.73;14.68;;;7.60;84.00;;;;;;5092565;28;20055;-45
2022/04/16 01:45:24;;;;;;;19.38;13.93;;;7.60;84.10;;;;;;5092124;28;20482;-45
2022/04/16 01:47:51;;;;;;;21.98;15.20;;;7.60;84.40;;;;;;5091579;28;20039;-44
2022/04/16 01:50:20;;;;;;;17.17;13.30;;;7.60;84.20;;;;;;5074281;28;20032;-49
2022/04/16 01:52:47;;;;;;;20.20;13.82;;;7.60;84.10;;;;;;5073823;28;20036;-44
2022/04/16 01:55:14;;;;;;;20.27;14.05;;;7.60;84.20;;;;;;5073107;28;20047;-47
2022/04/16 01:57:42;;;;;;;23.15;13.93;;;7.60;84.20;;;;;;5073030;28;20119;-44
2022/04/16 02:00:14;;;;;;;19.15;13.98;;;7.60;84.10;;;;;;5091815;28;20052;-44
2022/04/16 02:02:41;;;;;;;18.08;14.13;;;7.50;84.20;;;;;;5091315;28;20035;-45
2022/04/16 02:05:09;;;;;;;16.00;13.68;;;7.40;84.40;;;;;;5090557;28;20097;-45
2022/04/16 02:07:38;;;;;;;18.10;13.20;;;7.40;84.40;;;;;;5074141;28;20073;-44
2022/04/16 02:10:06;;;;;;;21.25;14.38;;;7.40;84.20;;;;;;5094316;28;20027;-44
2022/04/16 02:12:35;;;;;;;22.52;15.30;;;7.30;84.40;;;;;;5095044;28;20032;-44
2022/04/16 02:15:01;;;;;;;21.60;13.25;;;7.30;84.40;;;;;;5077245;28;20030;-45
2022/04/16 02:17:32;;;;;;;21.50;14.27;;;7.20;84.60;;;;;;5094416;28;20016;-44
2022/04/16 02:19:59;;;;;;;21.52;13.93;;;7.20;84.60;;;;;;5094939;28;20036;-43
2022/04/16 02:22:26;;;;;;;19.92;14.00;;;7.10;84.70;;;;;;5094983;28;20049;-45
2022/04/16 02:24:53;;;;;;;19.00;13.30;;;7.00;84.70;;;;;;5077216;28;20047;-43
2022/04/16 02:27:20;;;;;;;22.35;13.90;;;7.00;84.90;;;;;;5095053;28;20103;-45
2022/04/16 02:29:47;;;;;;;19.17;13.25;;;7.00;84.90;;;;;;5094424;28;20024;-44
2022/04/16 02:32:14;;;;;;;19.58;12.82;;;6.90;84.60;;;;;;5094333;28;20032;-46
2022/04/16 02:34:41;;;;;;;20.95;13.25;;;6.90;84.50;;;;;;5095043;28;20032;-45
2022/04/16 02:37:08;;;;;;;14.65;11.48;;;6.90;84.30;;;;;;5076556;28;20081;-43
2022/04/16 02:39:36;;;;;;;16.63;10.85;;;6.80;84.00;;;;;;5093385;28;20062;-44
2022/04/16 02:42:03;;;;;;;14.93;10.23;;;6.70;83.90;;;;;;5094940;28;20081;-44
2022/04/16 02:47:14;;;;;;;13.05;9.00;;;6.60;83.40;;;;;;5085697;28;20039;-45
2022/04/16 02:49:43;;;;;;;17.38;10.82;;;6.60;83.50;;;;;;5095039;28;20082;-44
2022/04/16 02:52:10;;;;;;;13.23;9.60;;;6.60;83.30;;;;;;5093730;28;20032;-43
2022/04/16 02:54:37;;;;;;;15.15;9.57;;;6.50;83.20;;;;;;5093775;28;20027;-44
2022/04/16 02:57:04;;;;;;;13.98;9.07;;;6.40;83.10;;;;;;5094754;28;20031;-43
2022/04/16 02:59:35;;;;;;;17.23;9.65;;;6.40;83.10;;;;;;5094154;28;20050;-43
2022/04/16 03:02:03;;;;;;;13.60;8.32;;;6.40;83.10;;;;;;5059067;28;20072;-44
2022/04/16 03:04:30;;;;;;;15.10;8.45;;;6.20;82.30;;;;;;5094099;28;20016;-44
2022/04/16 03:06:57;;;;;;;8.65;6.13;;;6.20;81.60;;;;;;5093177;28;20093;-43
2022/04/16 03:09:24;;;;;;;9.40;5.93;;;6.10;81.10;;;;;;5094043;28;20016;-45
2022/04/16 03:11:51;;;;;;;9.30;6.10;;;6.10;80.20;;;;;;5093579;28;20536;-46
2022/04/16 03:19:50;;;;;;;10.05;6.13;;;6.00;80.20;;;;;;5088365;28;20108;-48
2022/04/16 03:22:19;;;;;;;10.43;6.63;;;5.90;80.50;;;;;;5094423;28;20051;-47
2022/04/16 03:24:46;;;;;;;10.38;6.30;;;5.90;80.30;;;;;;5093376;28;20418;-48
2022/04/16 03:27:13;;;;;;;12.05;6.97;;;5.90;80.10;;;;;;5093303;28;20043;-47
2022/04/16 03:29:40;;;;;;;11.55;5.75;;;5.90;80.20;;;;;;5075293;28;20032;-44
2022/04/16 03:32:06;;;;;;;9.68;6.03;;;5.80;79.70;;;;;;5093654;28;20031;-45
2022/04/16 03:34:32;;;;;;;8.07;4.68;;;5.80;79.20;;;;;;5092112;28;20743;-44
2022/04/16 03:36:59;;;;;;;7.13;3.25;;;5.70;78.10;;;;;;5094151;28;20058;-44
2022/04/16 03:39:26;;;;;;;6.22;3.47;;;5.70;77.20;;;;;;5094253;28;20085;-46
2022/04/16 03:41:52;;;;;;;5.40;3.05;;;5.80;76.70;;;;;;5092320;28;20047;-43
2022/04/16 03:44:19;;;;;;;6.32;2.92;;;5.70;75.40;;;;;;5094272;28;20024;-45
2022/04/16 03:46:46;;;;;;;6.88;2.60;;;5.60;74.90;;;;;;5093135;28;20119;-46
2022/04/16 03:49:13;;;;;;;4.10;2.10;;;5.60;73.70;;;;;;5085879;28;20028;-48
2022/04/16 03:51:41;;;;;;;4.70;1.85;;;5.60;72.80;;;;;;5094284;28;20097;-48
2022/04/16 04:02:24;;;;;;;3.38;1.88;;;5.40;73.40;;;;;;5071403;28;20040;-43
2022/04/16 04:04:51;;;;;;;5.53;2.17;;;5.40;72.20;;;;;;5073276;28;20025;-46
2022/04/16 04:07:18;;;;;;;4.97;1.98;;;5.40;73.20;;;;;;5054332;28;20459;-44
2022/04/16 04:09:45;;;;;;;3.92;1.67;;;5.30;73.80;;;;;;5055317;28;20036;-45
2022/04/16 04:12:15;;;;;;;5.18;2.17;;;5.30;73.60;;;;;;5073036;28;20360;-44
2022/04/16 04:14:44;;;;;;;3.83;2.10;;;5.30;73.60;;;;;;5054129;28;20098;-46
2022/04/16 04:17:10;;;;;;;6.25;2.03;;;5.30;73.30;;;;;;5053398;28;20123;-45
2022/04/16 04:19:42;;;;;;;5.45;2.15;;;5.30;74.20;;;;;;5073058;28;20040;-46
2022/04/16 04:22:11;;;;;;;4.57;2.13;;;5.20;73.50;;;;;;5054953;28;20036;-46
2022/04/16 04:24:39;;;;;;;2.85;1.48;;;5.20;73.50;;;;;;5072420;28;20025;-46
2022/04/16 04:27:06;;;;;;;3.13;1.60;;;5.20;73.20;;;;;;5054334;28;20411;-50
2022/04/16 04:29:35;;;;;;;4.53;2.00;;;5.10;72.80;;;;;;5054623;28;20024;-45
2022/04/16 04:32:03;;;;;;;2.60;1.27;;;5.10;73.60;;;;;;5071664;28;20028;-44
2022/04/16 04:34:29;;;;;;;4.28;1.30;;;5.10;73.20;;;;;;5054091;28;20033;-46
2022/04/16 04:36:54;;;;;;;3.50;1.20;;;5.00;73.20;;;;;;5048798;28;20037;-44
2022/04/16 04:39:21;;;;;;;5.47;1.63;;;5.00;73.40;;;;;;5068657;28;20086;-45
2022/04/16 04:41:48;;;;;;;4.57;1.45;;;5.00;72.90;;;;;;5071536;28;20036;-44
2022/04/16 04:44:16;;;;;;;3.28;1.10;;;5.00;73.10;;;;;;5071440;28;20123;-46
2022/04/16 04:46:43;;;;;;;2.05;1.10;;;5.00;72.90;;;;;;5072258;28;20506;-44
2022/04/16 04:49:09;;;;;;;2.38;1.10;;;5.00;72.80;;;;;;5053371;28;20127;-45
2022/04/16 04:51:36;;;;;;;3.00;1.17;;;5.00;72.90;;;;;;5055433;28;20509;-46
2022/04/16 04:54:03;;;;;;;5.47;1.65;;;5.00;73.40;;;;;;5065275;28;20098;-45
2022/04/16 04:56:29;;;;;;;1.88;1.13;;;5.10;73.10;;;;;;5071899;28;20441;-44
2022/04/16 04:58:56;;;;;;;2.97;1.63;;;5.00;73.80;;;;;;5072158;28;20111;-43
2022/04/16 05:01:25;;;;;;;2.17;1.05;;;5.00;72.60;;;;;;5078170;28;20044;-44
2022/04/16 05:03:51;;;;;;;3.55;1.17;;;5.00;72.70;;;;;;5092108;28;20119;-46
2022/04/16 05:06:17;;;;;;;4.93;1.88;;;5.00;72.30;;;;;;5089415;28;20040;-44
2022/04/16 05:08:43;;;;;;;3.75;1.80;;;5.00;72.70;;;;;;5086139;28;20038;-44
2022/04/16 05:11:13;;;;;;;4.10;1.55;;;5.10;72.50;;;;;;5071081;28;20393;-45
2022/04/16 05:13:39;;;;;;;4.40;1.60;;;5.20;72.50;;;;;;5076944;28;20028;-44
2022/04/16 05:16:07;;;;;;;3.45;1.13;;;5.20;72.70;;;;;;5090366;28;20093;-46
2022/04/16 05:18:34;;;;;;;4.00;1.27;;;5.20;72.80;;;;;;5081447;28;20029;-45
2022/04/16 05:21:01;;;;;;;5.28;1.30;;;5.40;73.00;;;;;;5074172;28;20036;-45
2022/04/16 05:23:28;;;;;;;2.38;1.15;;;5.40;72.30;;;;;;5063803;28;20091;-47
2022/04/16 05:25:55;;;;;;;3.58;1.20;;;5.40;72.40;;;;;;5052863;28;20036;-46
2022/04/16 05:28:22;;;;;;;2.20;0.90;;;5.40;72.30;;;;;;5075861;28;20333;-43
2022/04/16 05:30:54;;;;;;;6.97;1.30;;;5.50;73.10;;;;;;5092585;28;20039;-46
2022/04/16 05:36:08;;;;;;;3.53;1.15;;;5.50;71.90;;;;;;5091740;28;20123;-43
2022/04/16 05:38:35;;;;;;;1.95;1.00;;;5.50;72.40;;;;;;5086431;28;20487;-49
2022/04/16 05:41:02;;;;;;;3.20;1.20;;;5.60;72.30;;;;;;5082936;28;20081;-44
2022/04/16 05:43:28;;;;;;;3.67;1.50;;;5.60;72.50;;;;;;5078962;28;20020;-46
2022/04/16 05:45:55;;;;;;;3.88;1.30;;;5.70;72.40;;;;;;5094054;28;20024;-44
2022/04/16 05:48:21;;;;;;;4.45;1.33;;;5.70;72.60;;;;;;5094958;28;20028;-44
2022/04/16 05:50:48;;;;;;;3.67;1.17;;;5.70;72.10;;;;;;5094348;28;20450;-45
2022/04/16 05:53:14;;;;;;;3.88;1.30;;;5.90;71.00;;;;;;5078539;28;20055;-47
2022/04/16 05:55:45;;;;;;;4.07;1.50;;;5.90;71.20;;;;;;5075725;28;20043;-44
2022/04/16 05:58:12;;;;;;;3.58;1.33;;;6.00;71.20;;;;;;5078628;28;20158;-43
2022/04/16 06:00:39;;;;;;;3.30;1.50;;;6.20;71.20;;;;;;5058478;28;20441;-43
2022/04/16 06:03:06;;;;;;;3.28;1.35;;;6.40;71.30;;;;;;5094558;28;20420;-48
2022/04/16 06:05:33;;;;;;;4.05;1.35;;;6.40;70.30;;;;;;5086110;28;20024;-45
2022/04/16 06:08:00;;;;;;;5.65;1.67;;;6.50;70.30;;;;;;5081904;28;20025;-44
2022/04/16 06:10:27;;;;;;;4.10;2.38;;;6.70;70.20;;;;;;5075877;28;20036;-45
2022/04/16 06:12:54;;;;;;;3.65;1.27;;;6.80;69.10;;;;;;5071507;28;20786;-44
2022/04/16 06:15:20;;;;;;;4.13;1.90;;;6.90;68.40;;;;;;5094918;28;20039;-43
2022/04/16 06:17:47;;;;;;;3.65;1.25;;;6.90;68.30;;;;;;5094751;28;20059;-44
2022/04/16 06:20:14;;;;;;;2.95;1.08;;;6.90;67.60;;;;;;5094034;28;20508;-44
2022/04/16 06:22:41;;;;;;;4.47;1.70;;;6.90;67.40;;;;;;5056562;28;20025;-45
2022/04/16 06:25:12;;;;;;;2.60;1.33;;;7.00;68.20;;;;;;5070991;28;20035;-46
2022/04/16 06:27:38;;;;;;;4.03;0.98;;;7.00;67.20;;;;;;5068069;28;20449;-45
2022/04/16 06:30:08;;;;;;;2.30;1.10;;;7.00;67.50;;;;;;5066883;28;20117;-45
2022/04/16 06:32:35;;;;;;;2.20;0.90;;;7.00;67.40;;;;;;5080307;28;20109;-43
2022/04/16 06:35:05;;;;;;;2.35;1.02;;;7.10;66.90;;;;;;5067682;28;20035;-48
2022/04/16 06:37:33;;;;;;;4.15;1.25;;;7.20;68.20;;;;;;5089580;28;20106;-45
2022/04/16 06:40:00;;;;;;;2.42;1.30;;;7.10;67.40;;;;;;5095183;28;20028;-45
2022/04/16 06:42:27;;;;;;;4.47;1.38;;;7.10;66.90;;;;;;5092066;28;20035;-46
2022/04/16 06:44:53;;;;;;;2.80;1.15;;;7.00;66.50;;;;;;5092508;28;20343;-47
2022/04/16 06:47:20;;;;;;;4.95;0.95;;;6.90;66.80;;;;;;5094064;28;20091;-45
2022/04/16 06:49:45;;;;;;;3.80;1.00;;;6.90;66.80;;;;;;5093205;28;20032;-47
2022/04/16 06:52:12;;;;;;;2.30;0.95;;;7.00;67.60;;;;;;5073936;28;20023;-47
2022/04/16 06:54:42;;;;;;;4.43;1.20;;;7.10;66.80;;;;;;5076175;28;20032;-44
2022/04/16 06:57:09;;;;;;;;;;;7.00;65.90;;;;;;5094303;28;20089;-47
2022/04/16 06:59:37;;;;;;;1.50;0.80;;;7.10;66.50;;;;;;5084905;28;19931;-43
2022/04/16 07:02:05;;;;;;;3.63;0.77;;;7.30;67.20;;;;;;5085397;28;20148;-48
2022/04/16 07:04:31;;;;;;;2.53;0.88;;;7.40;65.80;;;;;;5092728;28;20418;-46
2022/04/16 07:06:58;;;;;;;2.33;1.13;;;7.40;65.90;;;;;;5082282;28;20021;-47
2022/04/16 07:09:25;;;;;;;2.63;0.95;;;7.40;66.20;;;;;;5087880;28;20020;-44
2022/04/16 07:11:52;;;;;;;2.13;0.80;;;7.40;67.10;;;;;;5059792;28;20036;-48
2022/04/16 07:14:19;;;;;;;4.40;1.20;;;7.40;66.40;;;;;;5062168;28;20460;-44
2022/04/16 07:16:46;;;;;;;1.65;0.80;;;7.70;67.60;;;;;;5092202;28;20040;-43
2022/04/16 07:19:13;;;;;;;2.50;1.00;;;7.90;67.40;;;;;;5072412;28;20024;-44
2022/04/16 07:21:42;;;;;;;2.78;0.90;;;8.00;65.80;;;;;;5081807;28;20043;-46
2022/04/16 07:24:08;;;;;;;2.40;1.00;;;8.20;65.10;;;;;;5093055;28;20032;-45
2022/04/16 07:26:35;;;;;;;2.80;1.38;;;8.30;65.60;;;;;;5090238;28;20278;-47
2022/04/16 07:29:02;;;;;;;2.97;1.05;;;8.40;63.60;;;;;;5088468;28;20029;-44
2022/04/16 07:31:29;;;;;;;4.95;1.05;;;8.50;62.80;;;;;;5067782;28;20111;-46
2022/04/16 07:34:00;;;;;;;1.27;0.80;;;8.90;62.30;;;;;;5045068;28;20067;-44
2022/04/16 07:36:27;;;;;;;2.60;1.08;;;9.10;62.30;;;;;;5065471;28;20483;-43
2022/04/16 07:38:54;;;;;;;2.90;0.88;;;9.40;60.90;;;;;;5085304;28;20032;-44
2022/04/16 07:41:21;;;;;;;2.28;0.80;;;9.50;60.10;;;;;;5081365;28;20028;-47
2022/04/16 07:43:49;;;;;;;2.83;0.80;;;9.90;59.70;;;;;;5114080;28;20049;-44
2022/04/16 07:46:21;;;;;;;1.83;0.80;;;10.40;58.30;;;;;;5080214;28;20028;-45
2022/04/16 07:48:47;;;;;;;2.92;1.10;;;10.80;56.00;;;;;;5075399;28;20038;-44
2022/04/16 07:51:14;;;;;;;1.20;0.60;;;11.20;53.90;;;;;;5074197;28;20031;-47
2022/04/16 07:53:40;;;;;;;3.10;0.80;;;11.20;54.50;;;;;;5086722;28;20042;-45
2022/04/16 07:56:09;;;;;;;1.85;0.90;;;11.10;53.30;;;;;;5075632;28;20032;-45
2022/04/16 07:58:36;;;;;;;1.52;0.80;;;11.10;52.60;;;;;;5074009;28;20053;-44
2022/04/16 08:01:03;;;;;;;1.42;0.63;;;11.40;53.70;;;;;;5090873;28;20051;-44
2022/04/16 08:03:30;;;;;;;2.25;1.10;;;11.60;51.70;;;;;;5092470;28;20039;-46
2022/04/16 08:05:56;;;;;;;3.17;0.80;;;11.80;51.70;;;;;;5090889;28;20081;-44
2022/04/16 08:08:23;;;;;;;3.25;1.20;;;12.10;51.80;;;;;;5092702;28;20432;-45
2022/04/16 08:10:51;;;;;;;3.03;0.85;;;12.30;50.00;;;;;;5074635;28;20035;-44
2022/04/16 08:13:23;;;;;;;2.15;0.98;;;12.40;51.00;;;;;;5093016;28;20437;-44
2022/04/16 08:15:50;;;;;;;2.85;1.10;;;12.90;50.00;;;;;;5073522;28;20036;-44
2022/04/16 08:18:20;;;;;;;2.40;1.10;;;13.30;48.20;;;;;;5091909;28;20020;-46
2022/04/16 08:20:46;;;;;;;1.63;0.77;;;13.70;47.20;;;;;;5092425;28;20445;-44
2022/04/16 08:23:14;;;;;;;3.13;0.90;;;13.60;46.60;;;;;;5093268;28;20020;-45
2022/04/16 08:28:08;;;;;;;2.17;0.70;;;13.40;45.90;;;;;;5093914;28;20452;-44
2022/04/16 08:30:34;;;;;;;1.08;0.68;;;13.00;46.30;;;;;;5094241;28;20047;-44
2022/04/16 08:33:01;;;;;;;2.25;0.85;;;13.40;46.50;;;;;;5113936;28;20459;-46
2022/04/16 08:35:28;;;;;;;2.50;0.70;;;13.50;45.60;;;;;;5104291;28;20028;-45
2022/04/16 08:37:57;;;;;;;2.63;0.65;;;13.50;44.80;;;;;;5072874;28;20119;-44
2022/04/16 08:40:24;;;;;;;1.48;0.80;;;13.20;44.40;;;;;;5092566;28;20028;-46
2022/04/16 08:42:50;;;;;;;1.52;0.85;;;13.20;44.20;;;;;;5074683;28;20031;-43
2022/04/16 08:45:16;;;;;;;2.63;0.70;;;13.30;44.60;;;;;;5090939;28;20441;-44
2022/04/16 08:47:46;;;;;;;1.73;0.70;;;13.70;43.90;;;;;;5092115;28;20494;-44
2022/04/16 08:50:13;;;;;;;1.80;0.70;;;13.70;44.70;;;;;;5073097;28;20117;-47
2022/04/16 08:52:41;;;;;;;1.73;0.70;;;14.00;44.50;;;;;;5075196;28;20062;-44
2022/04/16 08:55:12;;;;;;;1.75;1.05;;;14.20;44.40;;;;;;5059596;28;20057;-47
2022/04/16 08:57:39;;;;;;;1.65;0.75;;;14.00;44.70;;;;;;5086529;28;20461;-44
2022/04/16 09:00:06;;;;;;;2.53;1.40;;;14.40;43.20;;;;;;5063839;28;20020;-49
2022/04/16 09:02:32;;;;;;;3.35;0.70;;;14.20;46.20;;;;;;5073729;28;20246;-44
2022/04/16 09:05:09;;;;;;;2.33;0.90;;;14.40;45.40;;;;;;5073629;28;20513;-47
2022/04/16 09:07:50;;;;;;;2.35;0.73;;;14.40;43.10;;;;;;5072796;28;20031;-46
2022/04/16 09:10:16;;;;;;;1.85;0.73;;;14.40;44.10;;;;;;5079820;28;20448;-46
2022/04/16 09:12:42;;;;;;;1.95;0.75;;;14.20;42.30;;;;;;5083728;28;20020;-45
2022/04/16 09:15:11;;;;;;;1.50;0.60;;;14.00;42.50;;;;;;5089142;28;20028;-43
2022/04/16 09:17:39;;;;;;;1.73;0.57;;;14.10;42.40;;;;;;5090988;28;20032;-44
2022/04/16 09:20:10;;;;;;;1.77;0.70;;;14.00;43.10;;;;;;5096253;28;20031;-46
2022/04/16 09:22:38;;;;;;;2.95;0.77;;;14.00;44.40;;;;;;5087846;28;20112;-45
2022/04/16 09:25:15;;;;;;;2.55;1.08;;;14.20;43.10;;;;;;5095882;28;20333;-45
2022/04/16 09:27:49;;;;;;;2.00;0.75;;;14.20;42.20;;;;;;5097031;28;20479;-45
2022/04/16 09:30:30;;;;;;;1.85;0.77;;;14.10;42.00;;;;;;5078267;28;20431;-46
2022/04/16 09:32:59;;;;;;;1.77;0.80;;;14.40;44.70;;;;;;5095025;28;20024;-46
2022/04/16 09:35:32;;;;;;;3.05;1.58;;;14.80;42.70;;;;;;5077970;28;20035;-45
2022/04/16 09:38:00;;;;;;;1.50;0.55;;;14.60;42.40;;;;;;5078811;28;20099;-45
2022/04/16 09:40:30;;;;;;;2.22;0.88;;;14.60;42.30;;;;;;5077671;28;20035;-48
2022/04/16 09:42:59;;;;;;;2.28;1.10;;;14.70;42.10;;;;;;5095292;28;20032;-47
2022/04/16 09:45:26;;;;;;;2.92;0.98;;;14.80;41.10;;;;;;5095481;28;20060;-47
2022/04/16 09:47:57;;;;;;;2.25;1.17;;;14.80;40.00;;;;;;5077955;28;20441;-44
2022/04/16 09:50:25;;;;;;;2.05;0.63;;;14.70;43.10;;;;;;5096315;28;20036;-44
2022/04/16 09:52:54;;;;;;;3.22;1.00;;;14.70;42.00;;;;;;5094683;28;20028;-47
2022/04/16 09:55:23;;;;;;;3.17;1.07;;;14.80;43.20;;;;;;5082361;28;20033;-44
2022/04/16 09:57:52;;;;;;;1.90;0.90;;;14.60;42.00;;;;;;5084289;28;20028;-44
2022/04/16 10:00:18;;;;;;;1.95;0.75;;;14.40;42.90;;;;;;5094096;28;20037;-46
2022/04/16 10:02:50;;;;;;;1.30;0.60;;;14.60;43.90;;;;;;5077122;28;20024;-48
2022/04/16 10:05:19;;;;;;;1.95;0.70;;;14.80;42.60;;;;;;5096187;28;20035;-45
2022/04/16 10:07:46;;;;;;;2.50;0.83;;;14.90;42.80;;;;;;5080244;28;20044;-45
2022/04/16 10:10:30;;;;;;;1.85;1.15;;;15.10;41.60;;;;;;5070225;28;20025;-49
2022/04/16 10:13:04;;;;;;;2.53;1.08;;;15.10;41.40;;;;;;5081544;28;20030;-45
2022/04/16 10:15:52;;;;;;;3.35;0.80;;;15.10;44.50;;;;;;5093438;28;20172;-44
2022/04/16 10:18:19;;;;;;;2.00;0.93;;;15.10;41.40;;;;;;5094574;28;20024;-46
2022/04/16 10:21:00;;;;;;;2.28;0.70;;;15.00;41.30;;;;;;5095887;28;20432;-46
2022/04/16 10:23:36;;;;;;;5.10;0.85;;;15.00;40.70;;;;;;5076813;28;20425;-44
2022/04/16 10:26:17;;;;;;;1.80;0.70;;;15.00;39.40;;;;;;5094309;28;20036;-45
2022/04/16 10:28:53;;;;;;;1.15;0.50;;;14.90;40.40;;;;;;5077314;28;20020;-48
2022/04/16 10:31:28;;;;;;;2.40;1.00;;;14.90;41.50;;;;;;5078789;28;20039;-44
2022/04/16 10:34:11;;;;;;;2.03;0.70;;;15.00;41.50;;;;;;5092214;28;20111;-45
2022/04/16 10:36:55;;;;;;;2.58;0.77;;;15.10;40.50;;;;;;5092773;28;20032;-46
2022/04/16 10:39:31;;;;;;;2.35;0.60;;;15.10;41.10;;;;;;5079014;28;20794;-45
2022/04/16 10:42:04;;;;;;;2.17;0.73;;;15.00;42.60;;;;;;5085906;28;20093;-45
2022/04/16 10:44:45;;;;;;;2.40;0.70;;;15.40;41.30;;;;;;5059819;28;20028;-47
2022/04/16 10:47:17;;;;;;;1.98;0.80;;;15.40;38.40;;;;;;5092219;28;20038;-45
2022/04/16 10:49:45;;;;;;;2.47;0.90;;;15.40;39.20;;;;;;5095560;28;20020;-45
2022/04/16 10:52:29;;;;;;;1.73;0.88;;;15.30;38.30;;;;;;5094255;28;20039;-47
2022/04/16 10:55:05;;;;;;;1.77;0.60;;;15.00;39.40;;;;;;5076564;28;20046;-47
2022/04/16 10:57:31;;;;;;;1.85;0.57;;;15.20;38.20;;;;;;5075814;28;20401;-44
2022/04/16 10:59:58;;;;;;;1.85;0.60;;;15.00;38.90;;;;;;5090405;28;20487;-45
2022/04/16 11:02:42;;;;;;;2.05;0.70;;;14.90;35.90;;;;;;5092656;28;20349;-46
2022/04/16 11:05:09;;;;;;;2.53;1.20;;;14.90;36.90;;;;;;5094458;28;20035;-44
2022/04/16 11:07:37;;;;;;;2.35;0.80;;;14.90;37.50;;;;;;5093439;28;20020;-48
2022/04/16 11:10:22;;;;;;;2.22;0.70;;;14.90;35.70;;;;;;5093425;28;20074;-46
2022/04/16 11:12:49;;;;;;;1.15;0.60;;;15.10;38.00;;;;;;5094522;28;20493;-45
2022/04/16 11:15:24;;;;;;;1.75;0.55;;;15.20;37.30;;;;;;5093937;28;20032;-47
2022/04/16 11:17:58;;;;;;;1.15;0.70;;;15.10;38.20;;;;;;5060765;28;20020;-49
2022/04/16 11:20:28;;;;;;;1.73;0.50;;;15.20;38.00;;;;;;5076835;28;20020;-44
2022/04/16 11:22:54;;;;;;;1.83;0.82;;;15.00;39.30;;;;;;5089929;28;20112;-50
2022/04/16 11:25:23;;;;;;;1.35;0.80;;;15.00;39.60;;;;;;5090242;28;20036;-48
2022/04/16 11:36:11;;;;;;;1.88;0.80;;;15.30;36.00;;;;;;5092450;28;20073;-45
2022/04/16 11:38:39;;;;;;;1.52;0.60;;;15.30;36.20;;;;;;5094279;28;20032;-45
2022/04/16 11:41:10;;;;;;;1.88;1.05;;;15.30;39.30;;;;;;5088352;28;20042;-47
2022/04/16 11:43:51;;;;;;;1.67;1.13;;;15.00;37.00;;;;;;5081271;28;20015;-47
2022/04/16 11:46:18;;;;;;;4.28;1.00;;;15.20;39.10;;;;;;5111405;28;20027;-44
2022/04/16 11:48:46;;;;;;;3.60;1.90;;;15.40;38.40;;;;;;5104552;28;20326;-46
2022/04/16 11:51:13;;;;;;;2.13;1.23;;;15.20;39.00;;;;;;5081982;28;20114;-47
2022/04/16 11:53:44;;;;;;;1.40;0.68;;;15.10;36.60;;;;;;5075562;28;20067;-45
2022/04/16 11:56:11;;;;;;;2.08;1.10;;;14.60;37.30;;;;;;5073443;28;20081;-46
2022/04/16 11:58:37;;;;;;;3.70;1.20;;;14.40;39.30;;;;;;5090365;28;20097;-47
2022/04/16 12:01:07;;;;;;;3.33;1.30;;;14.30;40.40;;;;;;5068602;28;20044;-45
2022/04/16 12:03:40;;;;;;;1.25;0.68;;;14.10;39.10;;;;;;5089150;28;20043;-45
2022/04/16 12:06:13;;;;;;;3.13;1.25;;;14.30;41.70;;;;;;5092199;28;20050;-44
2022/04/16 12:08:41;;;;;;;2.38;1.35;;;14.40;40.50;;;;;;5082213;28;20024;-46
2022/04/16 12:11:10;;;;;;;1.23;0.80;;;14.20;39.70;;;;;;5093553;28;20089;-44
2022/04/16 12:13:42;;;;;;;1.77;0.80;;;14.30;42.50;;;;;;5075076;28;20028;-44
2022/04/16 12:16:12;;;;;;;2.95;1.08;;;14.40;40.40;;;;;;5093287;28;20024;-46
2022/04/16 12:18:46;;;;;;;2.00;1.10;;;14.20;40.50;;;;;;5091983;28;20039;-46
2022/04/16 12:21:15;;;;;;;4.30;1.23;;;14.20;41.70;;;;;;5092174;28;20020;-44
2022/04/16 12:23:46;;;;;;;2.22;1.08;;;14.00;40.00;;;;;;5091839;28;20032;-46
2022/04/16 12:26:16;;;;;;;1.70;0.80;;;14.00;41.90;;;;;;5091321;28;20084;-43
2022/04/16 12:28:51;;;;;;;2.50;0.88;;;13.90;43.70;;;;;;5066167;28;20024;-45
2022/04/16 12:31:38;;;;;;;1.55;0.90;;;14.10;41.90;;;;;;5066926;28;20376;-45
2022/04/16 12:34:07;;;;;;;2.53;1.00;;;13.90;40.50;;;;;;5091280;28;20032;-44
2022/04/16 12:36:34;;;;;;;3.90;1.20;;;13.70;39.90;;;;;;5093418;28;20064;-45
2022/04/16 12:39:00;;;;;;;2.70;1.10;;;13.60;41.10;;;;;;5090141;28;20028;-46
2022/04/16 12:41:31;;;;;;;2.55;1.30;;;13.50;42.60;;;;;;5092725;28;20115;-48
2022/04/16 12:43:58;;;;;;;1.88;1.17;;;13.60;42.50;;;;;;5106136;28;20049;-48
2022/04/16 12:46:24;;;;;;;2.92;1.13;;;13.80;42.10;;;;;;5095253;28;20034;-44
2022/04/16 12:48:53;;;;;;;1.70;0.73;;;13.70;40.70;;;;;;5074555;28;20106;-48
2022/04/16 12:51:19;;;;;;;2.05;0.90;;;13.70;40.70;;;;;;5093062;28;20028;-46
2022/04/16 12:53:45;;;;;;;2.50;1.00;;;13.80;42.00;;;;;;5092524;28;20047;-46
2022/04/16 12:56:12;;;;;;;2.42;0.93;;;13.90;40.30;;;;;;5095046;28;20468;-44
2022/04/16 12:58:39;;;;;;;1.92;0.88;;;13.90;41.20;;;;;;5100571;28;20035;-45
2022/04/16 13:01:06;;;;;;;1.52;0.80;;;14.10;40.70;;;;;;5097763;28;20048;-45
2022/04/16 13:03:33;;;;;;;2.10;0.80;;;14.30;39.40;;;;;;5087701;28;20044;-44
2022/04/16 13:06:02;;;;;;;3.63;0.88;;;14.30;41.30;;;;;;5099121;28;20495;-43
2022/04/16 13:08:30;;;;;;;2.60;1.03;;;14.40;39.70;;;;;;5083980;28;20028;-46
2022/04/16 13:10:57;;;;;;;3.88;1.60;;;14.40;39.10;;;;;;5099608;28;20519;-44
2022/04/16 13:13:29;;;;;;;3.58;0.88;;;14.30;39.50;;;;;;5073771;28;20040;-44
2022/04/16 13:15:56;;;;;;;2.63;0.85;;;14.20;38.60;;;;;;5094419;28;20034;-45
2022/04/16 13:18:23;;;;;;;2.60;0.90;;;13.90;39.00;;;;;;5098022;28;20788;-44
2022/04/16 13:20:50;;;;;;;2.25;1.08;;;13.90;39.70;;;;;;5099452;28;20036;-49
2022/04/16 13:23:17;;;;;;;2.72;1.02;;;13.90;40.10;;;;;;5087691;28;20501;-45
2022/04/16 13:25:44;;;;;;;1.50;0.90;;;13.60;40.10;;;;;;5093788;28;20043;-45